Aviation Forecast PDF Print E-mail

 
met_logo

NATIONAL METEOROLOGICAL SERVICE OF BELIZE

Area Forecast for the Country of Belize


For the period from:

1200 28 SEPTEMBER 2016

to

2400 28 SEPTEMBER 2016

All Heights in the forecast are above sea level. PS= Positive, MS= Minus. All times are UTC.


A.

SPECIAL FEATURES of the METEOROLOGICAL SITUATION

A RELATIVELY DRY EASTERLY TO SOUTHEASTERLY AIRFLOW  PREVAILS OVER THE AREA...

B.

HEIGHT (Ft)

WIND (True Degrees and Knots)

TEMPERATURE (°C)

Surface

09008

  

PS32-34

2,000

10015

PS23

5,000

10010

PS18

10,000

10010

PS10

C.

CLOUDS (Amount, Type, Ceiling and Top(optional))

 ISOL/FEW CB BASES 1,000-1,200FT TOPS NEAR 30,000FT.

 SCT CU BASES 1,500-2,200FT TOPS 8,000-10,000FT

 

 

 


D.

SURFACE VISIBILITY:  GREATER THAN 10KM. REDUCED TO 3-5KM IN TSRA / SHRA / RA AND 500M IN HILL FOG.


E.

WEATHER:   SUNNY AND WARM. A FEW SHOWERS AND THUNDERSTORMS AFFECTING THE SOUTH OF THE COUNTRY THIS MORNING WILL BECOME ISOLATED LATER TODAY. HILL FOG INLAND.


Remarks, Warnings, Turbulence

Barometric Changes

LOW CLOUDS COVERING HILLS;  MOD TURB IN TCU/CB

RISING 

G.

OUTLOOK:

TO 1200 29 SEP -

PARTLY CLOUDY WITH A FEW SHOWERS AND ISOLATED THUNDERSTORMS IN THE SOUTH, ALONG THE COAST, AND OVER THE SEA.

H. 

TAF  MZBZ

281045Z 2812/2912 09008KT 9999 SCT022 PROB30 TEMPO 2909/2912 5000 SHRA BKN015 =

I.

Meteorological Office:

BELIZE

Issued at:

1150 28 SEPTEMBER 2016

Forecaster:

A. Guy